Assembly Point, New York
Current Conditions -  °F | °C
As of 2:01 PM on Tuesday 27 Jan 2015 (Local Time) from KGFL Reporting Station
Light Snow Light Snow  
Wind Chill: -2°   Ceiling: 1600
Heat Index: 11°   Visibility: 1.2mi
Dew Point:   Wind: 9mph
Humidity: 77%   Direction: 60°ENE
Pressure: 29.82"   Gusts: NA
Location:  43.4218°N, 73.7084°W
Report Text: KGFL 271901Z AUTO 06008KT 1 1/4SM -SN OVC016 M12/M15 A2982 RMK AO2 P0000 T11171150
Loading
Personal Weather Stations






























Interactive Weather Map New forecast layout! Learn more

10-Day Weather Forecast

Advertisements
Track Severe Weather on mobile